Terminal Aerodrome Forecast
Issued by NWS Kansas City/Pleasant Hill, MO

Home | Current Version | Previous Version | Text Only | Print | Product List | Glossary On
Versions: 1 2 3 4 5 6 7 8 9 10 11 12 13 14 15
807
FTUS43 KEAX 231123
TAFMCI
TAF
KMCI 231123Z 2312/2412 06013KT P6SM OVC100
     FM231900 07009KT P6SM OVC020
     FM240600 26008KT P6SM BKN030=

USA.gov is the U.S. government's official web portal to all federal, state and local government web resources and services.